sensor_id;sensor_type;location;lat;lon;timestamp;temperature;humidity
63966;DHT22;50151;52.030;5.350;2022-10-17T07:18:41;15.00;99.90
63966;DHT22;50151;52.030;5.350;2022-10-17T07:21:09;15.10;99.90
63966;DHT22;50151;52.030;5.350;2022-10-17T07:23:36;15.00;99.90
63966;DHT22;50151;52.030;5.350;2022-10-17T07:26:05;15.00;99.90
63966;DHT22;50151;52.030;5.350;2022-10-17T07:28:38;15.00;99.90
63966;DHT22;50151;52.030;5.350;2022-10-17T07:31:11;15.00;99.90
63966;DHT22;50151;52.030;5.350;2022-10-17T07:33:38;15.00;99.90
63966;DHT22;50151;52.030;5.350;2022-10-17T07:36:05;15.10;99.90
63966;DHT22;50151;52.030;5.350;2022-10-17T07:38:32;15.10;99.90
63966;DHT22;50151;52.030;5.350;2022-10-17T07:41:04;15.10;99.90
63966;DHT22;50151;52.030;5.350;2022-10-17T07:43:31;15.10;99.90
63966;DHT22;50151;52.030;5.350;2022-10-17T07:46:00;15.10;99.90
63966;DHT22;50151;52.030;5.350;2022-10-17T07:48:27;15.10;99.90
63966;DHT22;50151;52.030;5.350;2022-10-17T07:50:54;15.10;99.90
63966;DHT22;50151;52.030;5.350;2022-10-17T07:53:20;15.10;99.90
63966;DHT22;50151;52.030;5.350;2022-10-17T07:55:47;15.20;99.90
63966;DHT22;50151;52.030;5.350;2022-10-17T07:58:15;15.30;99.90
63966;DHT22;50151;52.030;5.350;2022-10-17T08:00:41;15.30;99.90
63966;DHT22;50151;52.030;5.350;2022-10-17T08:03:09;15.40;99.90
63966;DHT22;50151;52.030;5.350;2022-10-17T08:05:36;15.50;99.90
63966;DHT22;50151;52.030;5.350;2022-10-17T08:08:03;15.50;99.90
63966;DHT22;50151;52.030;5.350;2022-10-17T08:10:29;15.70;99.90
63966;DHT22;50151;52.030;5.350;2022-10-17T08:12:57;15.90;99.90
63966;DHT22;50151;52.030;5.350;2022-10-17T08:15:24;16.00;99.90
63966;DHT22;50151;52.030;5.350;2022-10-17T08:17:57;16.10;99.90
63966;DHT22;50151;52.030;5.350;2022-10-17T08:20:24;16.20;99.90
63966;DHT22;50151;52.030;5.350;2022-10-17T08:22:52;16.20;99.90
63966;DHT22;50151;52.030;5.350;2022-10-17T08:25:20;16.20;99.90
63966;DHT22;50151;52.030;5.350;2022-10-17T08:27:47;16.20;99.90
63966;DHT22;50151;52.030;5.350;2022-10-17T08:30:14;16.20;99.90
63966;DHT22;50151;52.030;5.350;2022-10-17T08:32:41;16.20;99.90
63966;DHT22;50151;52.030;5.350;2022-10-17T08:35:09;16.20;99.90
63966;DHT22;50151;52.030;5.350;2022-10-17T08:37:35;16.20;99.90
63966;DHT22;50151;52.030;5.350;2022-10-17T08:40:03;16.20;99.90
63966;DHT22;50151;52.030;5.350;2022-10-17T08:47:57;16.30;99.90
63966;DHT22;50151;52.030;5.350;2022-10-17T08:50:41;16.30;99.90
63966;DHT22;50151;52.030;5.350;2022-10-17T08:53:27;16.30;99.90
63966;DHT22;50151;52.030;5.350;2022-10-17T08:55:55;16.30;99.90
63966;DHT22;50151;52.030;5.350;2022-10-17T08:58:27;16.30;99.90
63966;DHT22;50151;52.030;5.350;2022-10-17T09:01:25;16.30;99.90
63966;DHT22;50151;52.030;5.350;2022-10-17T09:09:39;16.30;99.90
63966;DHT22;50151;52.030;5.350;2022-10-17T09:17:32;16.30;99.90
63966;DHT22;50151;52.030;5.350;2022-10-17T09:22:36;16.30;99.90
63966;DHT22;50151;52.030;5.350;2022-10-17T09:25:10;16.30;99.90
63966;DHT22;50151;52.030;5.350;2022-10-17T09:27:41;16.30;99.90
63966;DHT22;50151;52.030;5.350;2022-10-17T09:30:42;16.30;99.90
63966;DHT22;50151;52.030;5.350;2022-10-17T09:33:20;16.30;99.90
63966;DHT22;50151;52.030;5.350;2022-10-17T09:36:03;16.30;99.90
63966;DHT22;50151;52.030;5.350;2022-10-17T09:38:40;16.30;99.90
63966;DHT22;50151;52.030;5.350;2022-10-17T09:41:17;16.30;99.90
63966;DHT22;50151;52.030;5.350;2022-10-17T09:44:23;16.30;99.90
63966;DHT22;50151;52.030;5.350;2022-10-17T09:49:38;16.40;99.90
63966;DHT22;50151;52.030;5.350;2022-10-17T09:52:16;16.40;99.90
63966;DHT22;50151;52.030;5.350;2022-10-17T09:55:06;16.40;99.90
63966;DHT22;50151;52.030;5.350;2022-10-17T09:58:00;16.50;99.90
63966;DHT22;50151;52.030;5.350;2022-10-17T10:00:38;16.50;99.90
63966;DHT22;50151;52.030;5.350;2022-10-17T10:03:22;16.50;99.90
63966;DHT22;50151;52.030;5.350;2022-10-17T10:06:04;16.50;99.90
63966;DHT22;50151;52.030;5.350;2022-10-17T10:08:37;16.50;99.90
63966;DHT22;50151;52.030;5.350;2022-10-17T10:11:14;16.50;99.90
63966;DHT22;50151;52.030;5.350;2022-10-17T10:13:41;16.60;99.90
63966;DHT22;50151;52.030;5.350;2022-10-17T10:16:29;16.60;99.90
63966;DHT22;50151;52.030;5.350;2022-10-17T10:18:56;16.60;99.90
63966;DHT22;50151;52.030;5.350;2022-10-17T10:21:25;16.60;99.90
63966;DHT22;50151;52.030;5.350;2022-10-17T10:26:47;16.60;99.90
63966;DHT22;50151;52.030;5.350;2022-10-17T10:29:29;16.60;99.90
63966;DHT22;50151;52.030;5.350;2022-10-17T10:32:51;16.60;99.90
63966;DHT22;50151;52.030;5.350;2022-10-17T10:35:20;16.60;99.90
63966;DHT22;50151;52.030;5.350;2022-10-17T10:37:53;16.60;99.90
63966;DHT22;50151;52.030;5.350;2022-10-17T10:40:34;16.60;99.90
63966;DHT22;50151;52.030;5.350;2022-10-17T10:43:04;16.60;99.90
63966;DHT22;50151;52.030;5.350;2022-10-17T10:48:21;16.60;99.90
63966;DHT22;50151;52.030;5.350;2022-10-17T10:51:01;16.60;99.90
63966;DHT22;50151;52.030;5.350;2022-10-17T10:53:47;16.60;99.90
63966;DHT22;50151;52.030;5.350;2022-10-17T10:56:19;16.60;99.90
63966;DHT22;50151;52.030;5.350;2022-10-17T11:06:58;16.60;99.90
63966;DHT22;50151;52.030;5.350;2022-10-17T11:12:21;16.70;99.90
63966;DHT22;50151;52.030;5.350;2022-10-17T11:20:18;16.80;99.90
63966;DHT22;50151;52.030;5.350;2022-10-17T11:22:52;16.70;99.90
63966;DHT22;50151;52.030;5.350;2022-10-17T11:25:39;16.80;99.90
63966;DHT22;50151;52.030;5.350;2022-10-17T11:28:13;16.70;99.90
63966;DHT22;50151;52.030;5.350;2022-10-17T11:30:49;16.80;99.90
63966;DHT22;50151;52.030;5.350;2022-10-17T11:33:21;16.80;99.90
63966;DHT22;50151;52.030;5.350;2022-10-17T11:35:50;16.80;99.90
63966;DHT22;50151;52.030;5.350;2022-10-17T11:38:44;16.70;99.90
63966;DHT22;50151;52.030;5.350;2022-10-17T11:41:40;16.80;99.90
63966;DHT22;50151;52.030;5.350;2022-10-17T11:44:31;16.80;99.90
63966;DHT22;50151;52.030;5.350;2022-10-17T11:47:31;16.90;99.90
63966;DHT22;50151;52.030;5.350;2022-10-17T11:53:25;16.90;99.90
63966;DHT22;50151;52.030;5.350;2022-10-17T11:55:57;16.90;99.90
63966;DHT22;50151;52.030;5.350;2022-10-17T12:07:12;17.10;99.90
63966;DHT22;50151;52.030;5.350;2022-10-17T12:09:48;17.00;99.90
63966;DHT22;50151;52.030;5.350;2022-10-17T12:12:31;17.10;99.90
63966;DHT22;50151;52.030;5.350;2022-10-17T12:17:58;17.10;99.90
63966;DHT22;50151;52.030;5.350;2022-10-17T12:20:32;17.10;99.90
63966;DHT22;50151;52.030;5.350;2022-10-17T12:25:50;17.10;99.90
63966;DHT22;50151;52.030;5.350;2022-10-17T12:31:24;17.10;99.90
63966;DHT22;50151;52.030;5.350;2022-10-17T12:34:01;17.10;99.90
63966;DHT22;50151;52.030;5.350;2022-10-17T12:46:50;17.10;99.90
63966;DHT22;50151;52.030;5.350;2022-10-17T12:49:36;17.10;99.90
63966;DHT22;50151;52.030;5.350;2022-10-17T12:54:49;17.10;99.90
63966;DHT22;50151;52.030;5.350;2022-10-17T12:57:50;17.10;99.90
63966;DHT22;50151;52.030;5.350;2022-10-17T13:00:43;17.00;99.90
63966;DHT22;50151;52.030;5.350;2022-10-17T13:03:33;17.00;99.90
63966;DHT22;50151;52.030;5.350;2022-10-17T13:06:04;17.10;99.90
63966;DHT22;50151;52.030;5.350;2022-10-17T13:08:43;17.00;99.90
63966;DHT22;50151;52.030;5.350;2022-10-17T13:11:11;17.00;99.90
63966;DHT22;50151;52.030;5.350;2022-10-17T13:13:43;17.10;99.90
63966;DHT22;50151;52.030;5.350;2022-10-17T13:17:05;17.10;99.90
63966;DHT22;50151;52.030;5.350;2022-10-17T13:19:44;17.10;99.90
63966;DHT22;50151;52.030;5.350;2022-10-17T13:22:19;17.20;99.90
63966;DHT22;50151;52.030;5.350;2022-10-17T13:24:48;17.20;99.90
63966;DHT22;50151;52.030;5.350;2022-10-17T13:27:29;17.30;99.90
63966;DHT22;50151;52.030;5.350;2022-10-17T13:29:57;17.30;99.90
63966;DHT22;50151;52.030;5.350;2022-10-17T13:32:37;17.30;99.90
63966;DHT22;50151;52.030;5.350;2022-10-17T13:35:06;17.30;99.90
63966;DHT22;50151;52.030;5.350;2022-10-17T13:37:34;17.30;99.90
63966;DHT22;50151;52.030;5.350;2022-10-17T13:40:02;17.30;99.90
63966;DHT22;50151;52.030;5.350;2022-10-17T13:42:49;17.30;99.90
63966;DHT22;50151;52.030;5.350;2022-10-17T13:45:33;17.30;99.90
63966;DHT22;50151;52.030;5.350;2022-10-17T13:48:05;17.30;99.90
63966;DHT22;50151;52.030;5.350;2022-10-17T13:50:36;17.30;99.90
63966;DHT22;50151;52.030;5.350;2022-10-17T13:53:23;17.40;99.90
63966;DHT22;50151;52.030;5.350;2022-10-17T13:58:46;17.40;99.90
63966;DHT22;50151;52.030;5.350;2022-10-17T14:01:13;17.30;99.90
63966;DHT22;50151;52.030;5.350;2022-10-17T14:03:41;17.40;99.90
63966;DHT22;50151;52.030;5.350;2022-10-17T14:06:22;17.40;99.90
63966;DHT22;50151;52.030;5.350;2022-10-17T14:08:55;17.30;99.90
63966;DHT22;50151;52.030;5.350;2022-10-17T14:11:39;17.30;99.90
63966;DHT22;50151;52.030;5.350;2022-10-17T14:14:18;17.40;99.90
63966;DHT22;50151;52.030;5.350;2022-10-17T14:16:45;17.40;99.90
63966;DHT22;50151;52.030;5.350;2022-10-17T14:19:29;17.40;99.90
63966;DHT22;50151;52.030;5.350;2022-10-17T14:22:16;17.40;99.90
63966;DHT22;50151;52.030;5.350;2022-10-17T14:24:43;17.40;99.90
63966;DHT22;50151;52.030;5.350;2022-10-17T14:27:34;17.40;99.90
63966;DHT22;50151;52.030;5.350;2022-10-17T14:30:05;17.40;99.90
63966;DHT22;50151;52.030;5.350;2022-10-17T14:32:35;17.40;99.90
63966;DHT22;50151;52.030;5.350;2022-10-17T14:35:03;17.50;99.90
63966;DHT22;50151;52.030;5.350;2022-10-17T14:37:52;17.60;99.90
63966;DHT22;50151;52.030;5.350;2022-10-17T14:40:24;17.70;99.90
63966;DHT22;50151;52.030;5.350;2022-10-17T14:42:53;17.80;99.90
63966;DHT22;50151;52.030;5.350;2022-10-17T14:45:27;17.80;99.90
63966;DHT22;50151;52.030;5.350;2022-10-17T14:47:55;17.80;99.90
63966;DHT22;50151;52.030;5.350;2022-10-17T14:50:25;17.80;99.90
63966;DHT22;50151;52.030;5.350;2022-10-17T14:55:33;17.70;99.90
63966;DHT22;50151;52.030;5.350;2022-10-17T14:58:13;17.70;99.90
63966;DHT22;50151;52.030;5.350;2022-10-17T15:00:40;17.70;99.90
63966;DHT22;50151;52.030;5.350;2022-10-17T15:03:07;17.60;99.90
63966;DHT22;50151;52.030;5.350;2022-10-17T15:05:34;17.60;99.90
63966;DHT22;50151;52.030;5.350;2022-10-17T15:08:00;17.60;99.90
63966;DHT22;50151;52.030;5.350;2022-10-17T15:10:34;17.60;99.90
63966;DHT22;50151;52.030;5.350;2022-10-17T15:13:02;17.60;99.90
63966;DHT22;50151;52.030;5.350;2022-10-17T15:15:49;17.60;99.90
63966;DHT22;50151;52.030;5.350;2022-10-17T15:18:17;17.60;99.90
63966;DHT22;50151;52.030;5.350;2022-10-17T15:20:44;17.60;99.90
63966;DHT22;50151;52.030;5.350;2022-10-17T15:23:11;17.60;99.90
63966;DHT22;50151;52.030;5.350;2022-10-17T15:25:38;17.60;99.90
63966;DHT22;50151;52.030;5.350;2022-10-17T15:28:04;17.50;99.90
63966;DHT22;50151;52.030;5.350;2022-10-17T15:30:34;17.60;99.90
63966;DHT22;50151;52.030;5.350;2022-10-17T15:33:01;17.50;99.90
63966;DHT22;50151;52.030;5.350;2022-10-17T15:35:28;17.50;99.90
63966;DHT22;50151;52.030;5.350;2022-10-17T15:37:54;17.50;99.90
63966;DHT22;50151;52.030;5.350;2022-10-17T15:40:22;17.50;99.90
63966;DHT22;50151;52.030;5.350;2022-10-17T15:42:49;17.50;99.90
63966;DHT22;50151;52.030;5.350;2022-10-17T15:45:18;17.50;99.90
63966;DHT22;50151;52.030;5.350;2022-10-17T15:47:50;17.40;99.90
63966;DHT22;50151;52.030;5.350;2022-10-17T15:50:18;17.40;99.90
63966;DHT22;50151;52.030;5.350;2022-10-17T15:52:45;17.40;99.90
63966;DHT22;50151;52.030;5.350;2022-10-17T15:55:12;17.30;99.90
63966;DHT22;50151;52.030;5.350;2022-10-17T15:57:41;17.30;99.90
63966;DHT22;50151;52.030;5.350;2022-10-17T16:02:43;17.20;99.90
63966;DHT22;50151;52.030;5.350;2022-10-17T16:05:28;17.10;99.90
63966;DHT22;50151;52.030;5.350;2022-10-17T16:07:55;17.10;99.90
63966;DHT22;50151;52.030;5.350;2022-10-17T16:10:24;17.10;99.90
63966;DHT22;50151;52.030;5.350;2022-10-17T16:12:51;17.10;99.90
63966;DHT22;50151;52.030;5.350;2022-10-17T16:15:21;17.00;99.90
63966;DHT22;50151;52.030;5.350;2022-10-17T16:17:49;17.00;99.90
63966;DHT22;50151;52.030;5.350;2022-10-17T16:20:17;16.90;99.90
63966;DHT22;50151;52.030;5.350;2022-10-17T16:22:44;17.00;99.90
63966;DHT22;50151;52.030;5.350;2022-10-17T16:27:46;16.90;99.90
63966;DHT22;50151;52.030;5.350;2022-10-17T16:30:14;16.90;99.90
63966;DHT22;50151;52.030;5.350;2022-10-17T16:32:41;16.80;99.90
63966;DHT22;50151;52.030;5.350;2022-10-17T16:35:09;16.80;99.90
63966;DHT22;50151;52.030;5.350;2022-10-17T16:37:36;16.80;99.90
63966;DHT22;50151;52.030;5.350;2022-10-17T16:40:03;16.80;99.90
63966;DHT22;50151;52.030;5.350;2022-10-17T16:42:30;16.80;99.90
63966;DHT22;50151;52.030;5.350;2022-10-17T16:44:57;16.70;99.90
63966;DHT22;50151;52.030;5.350;2022-10-17T16:47:24;16.70;99.90
63966;DHT22;50151;52.030;5.350;2022-10-17T16:49:50;16.70;99.90
63966;DHT22;50151;52.030;5.350;2022-10-17T16:52:17;16.60;99.90
63966;DHT22;50151;52.030;5.350;2022-10-17T16:54:44;16.60;99.90
63966;DHT22;50151;52.030;5.350;2022-10-17T16:57:11;16.60;99.90
63966;DHT22;50151;52.030;5.350;2022-10-17T16:59:37;16.60;99.90
63966;DHT22;50151;52.030;5.350;2022-10-17T17:02:04;16.50;99.90
63966;DHT22;50151;52.030;5.350;2022-10-17T17:04:31;16.50;99.90
63966;DHT22;50151;52.030;5.350;2022-10-17T17:06:57;16.50;99.90
63966;DHT22;50151;52.030;5.350;2022-10-17T17:09:24;16.40;99.90
63966;DHT22;50151;52.030;5.350;2022-10-17T17:11:51;16.40;99.90
63966;DHT22;50151;52.030;5.350;2022-10-17T17:14:17;16.40;99.90
63966;DHT22;50151;52.030;5.350;2022-10-17T17:16:44;16.40;99.90
63966;DHT22;50151;52.030;5.350;2022-10-17T17:19:13;16.40;99.90
63966;DHT22;50151;52.030;5.350;2022-10-17T17:21:40;16.40;99.90
63966;DHT22;50151;52.030;5.350;2022-10-17T17:24:12;16.30;99.90
63966;DHT22;50151;52.030;5.350;2022-10-17T17:26:39;16.30;99.90
63966;DHT22;50151;52.030;5.350;2022-10-17T17:29:07;16.30;99.90
63966;DHT22;50151;52.030;5.350;2022-10-17T17:31:34;16.30;99.90
63966;DHT22;50151;52.030;5.350;2022-10-17T17:34:01;16.20;99.90
63966;DHT22;50151;52.030;5.350;2022-10-17T17:36:31;16.20;99.90
63966;DHT22;50151;52.030;5.350;2022-10-17T17:39:00;16.20;99.90
63966;DHT22;50151;52.030;5.350;2022-10-17T17:41:27;16.20;99.90
63966;DHT22;50151;52.030;5.350;2022-10-17T17:43:54;16.10;99.90
63966;DHT22;50151;52.030;5.350;2022-10-17T17:46:22;16.10;99.90
63966;DHT22;50151;52.030;5.350;2022-10-17T17:48:51;16.10;99.90
63966;DHT22;50151;52.030;5.350;2022-10-17T17:51:22;16.00;99.90
63966;DHT22;50151;52.030;5.350;2022-10-17T17:53:54;16.00;99.90
63966;DHT22;50151;52.030;5.350;2022-10-17T17:56:25;16.00;99.90
63966;DHT22;50151;52.030;5.350;2022-10-17T17:58:58;16.00;99.90
63966;DHT22;50151;52.030;5.350;2022-10-17T18:01:28;16.00;99.90
63966;DHT22;50151;52.030;5.350;2022-10-17T18:03:56;16.00;99.90
63966;DHT22;50151;52.030;5.350;2022-10-17T18:06:25;15.90;99.90
63966;DHT22;50151;52.030;5.350;2022-10-17T18:08:55;15.90;99.90
63966;DHT22;50151;52.030;5.350;2022-10-17T18:11:24;15.80;99.90
63966;DHT22;50151;52.030;5.350;2022-10-17T18:13:55;15.80;99.90
63966;DHT22;50151;52.030;5.350;2022-10-17T18:16:24;15.70;99.90
63966;DHT22;50151;52.030;5.350;2022-10-17T18:18:51;15.70;99.90
63966;DHT22;50151;52.030;5.350;2022-10-17T18:21:18;15.70;99.90
63966;DHT22;50151;52.030;5.350;2022-10-17T18:23:46;15.70;99.90
63966;DHT22;50151;52.030;5.350;2022-10-17T18:26:14;15.60;99.90
63966;DHT22;50151;52.030;5.350;2022-10-17T18:28:42;15.70;99.90
63966;DHT22;50151;52.030;5.350;2022-10-17T18:31:22;15.60;99.90
63966;DHT22;50151;52.030;5.350;2022-10-17T18:33:58;15.60;99.90
63966;DHT22;50151;52.030;5.350;2022-10-17T18:36:26;15.60;99.90
63966;DHT22;50151;52.030;5.350;2022-10-17T18:38:54;15.60;99.90
63966;DHT22;50151;52.030;5.350;2022-10-17T18:41:23;15.60;99.90
63966;DHT22;50151;52.030;5.350;2022-10-17T18:43:52;15.60;99.90
63966;DHT22;50151;52.030;5.350;2022-10-17T18:46:22;15.50;99.90
63966;DHT22;50151;52.030;5.350;2022-10-17T18:48:49;15.50;99.90
63966;DHT22;50151;52.030;5.350;2022-10-17T18:51:19;15.50;99.90
63966;DHT22;50151;52.030;5.350;2022-10-17T18:53:48;15.40;99.90
63966;DHT22;50151;52.030;5.350;2022-10-17T18:56:17;15.40;99.90
63966;DHT22;50151;52.030;5.350;2022-10-17T18:58:44;15.40;99.90
63966;DHT22;50151;52.030;5.350;2022-10-17T19:01:16;15.30;99.90
63966;DHT22;50151;52.030;5.350;2022-10-17T19:03:46;15.40;99.90
63966;DHT22;50151;52.030;5.350;2022-10-17T19:06:17;15.30;99.90
63966;DHT22;50151;52.030;5.350;2022-10-17T19:08:45;15.30;99.90
63966;DHT22;50151;52.030;5.350;2022-10-17T19:11:24;15.30;99.90
63966;DHT22;50151;52.030;5.350;2022-10-17T19:13:52;15.30;99.90
63966;DHT22;50151;52.030;5.350;2022-10-17T19:16:26;15.30;99.90
63966;DHT22;50151;52.030;5.350;2022-10-17T19:18:56;15.20;99.90
63966;DHT22;50151;52.030;5.350;2022-10-17T19:21:23;15.20;99.90
63966;DHT22;50151;52.030;5.350;2022-10-17T19:23:55;15.20;99.90
63966;DHT22;50151;52.030;5.350;2022-10-17T19:26:22;15.10;99.90
63966;DHT22;50151;52.030;5.350;2022-10-17T19:28:50;15.10;99.90
63966;DHT22;50151;52.030;5.350;2022-10-17T19:31:20;15.20;99.90
63966;DHT22;50151;52.030;5.350;2022-10-17T19:33:52;15.20;99.90
63966;DHT22;50151;52.030;5.350;2022-10-17T19:36:21;15.10;99.90
63966;DHT22;50151;52.030;5.350;2022-10-17T19:38:52;15.10;99.90
63966;DHT22;50151;52.030;5.350;2022-10-17T19:41:19;15.10;99.90
63966;DHT22;50151;52.030;5.350;2022-10-17T19:43:46;15.10;99.90
63966;DHT22;50151;52.030;5.350;2022-10-17T19:46:17;15.10;99.90
63966;DHT22;50151;52.030;5.350;2022-10-17T19:48:44;15.00;99.90
63966;DHT22;50151;52.030;5.350;2022-10-17T19:51:13;15.10;99.90
63966;DHT22;50151;52.030;5.350;2022-10-17T19:53:40;15.00;99.90
63966;DHT22;50151;52.030;5.350;2022-10-17T19:56:07;15.00;99.90
63966;DHT22;50151;52.030;5.350;2022-10-17T19:58:34;15.00;99.90
63966;DHT22;50151;52.030;5.350;2022-10-17T20:01:31;15.00;99.90
63966;DHT22;50151;52.030;5.350;2022-10-17T20:03:58;15.00;99.90
63966;DHT22;50151;52.030;5.350;2022-10-17T20:06:25;15.00;99.90
63966;DHT22;50151;52.030;5.350;2022-10-17T20:08:51;15.00;99.90
63966;DHT22;50151;52.030;5.350;2022-10-17T20:11:24;15.00;99.90
63966;DHT22;50151;52.030;5.350;2022-10-17T20:13:52;15.00;99.90
63966;DHT22;50151;52.030;5.350;2022-10-17T20:16:22;15.00;99.90
63966;DHT22;50151;52.030;5.350;2022-10-17T20:18:50;15.00;99.90
63966;DHT22;50151;52.030;5.350;2022-10-17T20:21:21;15.00;99.90
63966;DHT22;50151;52.030;5.350;2022-10-17T20:23:49;15.00;99.90
63966;DHT22;50151;52.030;5.350;2022-10-17T20:26:18;15.00;99.90
63966;DHT22;50151;52.030;5.350;2022-10-17T20:29:10;15.00;99.90
63966;DHT22;50151;52.030;5.350;2022-10-17T20:31:39;15.00;99.90
63966;DHT22;50151;52.030;5.350;2022-10-17T20:34:08;15.00;99.90
63966;DHT22;50151;52.030;5.350;2022-10-17T20:36:35;15.00;99.90
63966;DHT22;50151;52.030;5.350;2022-10-17T20:39:04;15.00;99.90
63966;DHT22;50151;52.030;5.350;2022-10-17T20:41:31;15.00;99.90
63966;DHT22;50151;52.030;5.350;2022-10-17T20:43:58;15.00;99.90
63966;DHT22;50151;52.030;5.350;2022-10-17T20:46:24;15.00;99.90
63966;DHT22;50151;52.030;5.350;2022-10-17T20:49:16;15.00;99.90
63966;DHT22;50151;52.030;5.350;2022-10-17T20:51:44;14.90;99.90
63966;DHT22;50151;52.030;5.350;2022-10-17T20:54:11;14.90;99.90
63966;DHT22;50151;52.030;5.350;2022-10-17T20:56:38;14.90;99.90
63966;DHT22;50151;52.030;5.350;2022-10-17T20:59:08;14.90;99.90
63966;DHT22;50151;52.030;5.350;2022-10-17T21:01:35;14.90;99.90
63966;DHT22;50151;52.030;5.350;2022-10-17T21:04:03;14.90;99.90
63966;DHT22;50151;52.030;5.350;2022-10-17T21:06:49;14.90;99.90
63966;DHT22;50151;52.030;5.350;2022-10-17T21:09:17;14.80;99.90
63966;DHT22;50151;52.030;5.350;2022-10-17T21:11:44;14.80;99.90
63966;DHT22;50151;52.030;5.350;2022-10-17T21:14:11;14.70;99.90
63966;DHT22;50151;52.030;5.350;2022-10-17T21:16:38;14.70;99.90
63966;DHT22;50151;52.030;5.350;2022-10-17T21:19:06;14.70;99.90
63966;DHT22;50151;52.030;5.350;2022-10-17T21:21:37;14.80;99.90
63966;DHT22;50151;52.030;5.350;2022-10-17T21:24:05;14.70;99.90
63966;DHT22;50151;52.030;5.350;2022-10-17T21:26:35;14.70;99.90
63966;DHT22;50151;52.030;5.350;2022-10-17T21:29:03;14.70;99.90
63966;DHT22;50151;52.030;5.350;2022-10-17T21:31:36;14.60;99.90
63966;DHT22;50151;52.030;5.350;2022-10-17T21:34:10;14.60;99.90
63966;DHT22;50151;52.030;5.350;2022-10-17T21:36:37;14.60;99.90
63966;DHT22;50151;52.030;5.350;2022-10-17T21:39:04;14.60;99.90
63966;DHT22;50151;52.030;5.350;2022-10-17T21:41:31;14.60;99.90
63966;DHT22;50151;52.030;5.350;2022-10-17T21:44:00;14.60;99.90
63966;DHT22;50151;52.030;5.350;2022-10-17T21:46:27;14.60;99.90
63966;DHT22;50151;52.030;5.350;2022-10-17T21:48:55;14.60;99.90
63966;DHT22;50151;52.030;5.350;2022-10-17T21:51:23;14.50;99.90
63966;DHT22;50151;52.030;5.350;2022-10-17T21:53:51;14.50;99.90
63966;DHT22;50151;52.030;5.350;2022-10-17T21:56:20;14.50;99.90
63966;DHT22;50151;52.030;5.350;2022-10-17T21:58:48;14.40;99.90
63966;DHT22;50151;52.030;5.350;2022-10-17T22:01:21;14.40;99.90
63966;DHT22;50151;52.030;5.350;2022-10-17T22:03:50;14.40;99.90
63966;DHT22;50151;52.030;5.350;2022-10-17T22:06:20;14.40;99.90
63966;DHT22;50151;52.030;5.350;2022-10-17T22:09:11;14.40;99.90
63966;DHT22;50151;52.030;5.350;2022-10-17T22:11:38;14.40;99.90
63966;DHT22;50151;52.030;5.350;2022-10-17T22:14:09;14.30;99.90
63966;DHT22;50151;52.030;5.350;2022-10-17T23:35:13;14.00;99.90
63966;DHT22;50151;52.030;5.350;2022-10-17T23:37:40;14.00;99.90
63966;DHT22;50151;52.030;5.350;2022-10-17T23:40:07;14.00;99.90
63966;DHT22;50151;52.030;5.350;2022-10-17T23:42:34;13.90;99.90
63966;DHT22;50151;52.030;5.350;2022-10-17T23:45:01;13.90;99.90
63966;DHT22;50151;52.030;5.350;2022-10-17T23:47:27;13.90;99.90
63966;DHT22;50151;52.030;5.350;2022-10-17T23:49:56;13.90;99.90
63966;DHT22;50151;52.030;5.350;2022-10-17T23:52:23;13.90;99.90
63966;DHT22;50151;52.030;5.350;2022-10-17T23:54:50;13.90;99.90
63966;DHT22;50151;52.030;5.350;2022-10-17T23:57:17;13.90;99.90
63966;DHT22;50151;52.030;5.350;2022-10-17T23:59:44;13.80;99.90
